sensor_id;sensor_type;location;lat;lon;timestamp;P1;durP1;ratioP1;P2;durP2;ratioP2
3849;SDS011;1940;51.052;13.678;2023-03-19T00:01:01;25.13;;;11.50;;
3849;SDS011;1940;51.052;13.678;2023-03-19T00:03:31;23.07;;;11.57;;
3849;SDS011;1940;51.052;13.678;2023-03-19T00:05:57;20.37;;;10.53;;
3849;SDS011;1940;51.052;13.678;2023-03-19T00:08:25;21.60;;;11.10;;
3849;SDS011;1940;51.052;13.678;2023-03-19T00:10:50;19.77;;;10.80;;
3849;SDS011;1940;51.052;13.678;2023-03-19T00:13:16;25.70;;;10.70;;
3849;SDS011;1940;51.052;13.678;2023-03-19T00:15:42;21.93;;;10.90;;
3849;SDS011;1940;51.052;13.678;2023-03-19T00:18:08;20.10;;;10.70;;
3849;SDS011;1940;51.052;13.678;2023-03-19T00:20:34;26.10;;;10.70;;
3849;SDS011;1940;51.052;13.678;2023-03-19T00:22:59;21.30;;;11.10;;
3849;SDS011;1940;51.052;13.678;2023-03-19T00:25:25;22.70;;;10.57;;
3849;SDS011;1940;51.052;13.678;2023-03-19T00:27:51;24.43;;;10.87;;
3849;SDS011;1940;51.052;13.678;2023-03-19T00:30:18;22.33;;;11.37;;
3849;SDS011;1940;51.052;13.678;2023-03-19T00:32:44;21.73;;;11.17;;
3849;SDS011;1940;51.052;13.678;2023-03-19T00:35:09;22.57;;;10.50;;
3849;SDS011;1940;51.052;13.678;2023-03-19T00:37:35;18.30;;;9.57;;
3849;SDS011;1940;51.052;13.678;2023-03-19T00:40:01;19.00;;;10.10;;
3849;SDS011;1940;51.052;13.678;2023-03-19T00:42:28;18.00;;;9.20;;
3849;SDS011;1940;51.052;13.678;2023-03-19T00:44:54;25.30;;;11.77;;
3849;SDS011;1940;51.052;13.678;2023-03-19T00:47:19;18.97;;;10.40;;
3849;SDS011;1940;51.052;13.678;2023-03-19T00:49:45;20.63;;;10.37;;
3849;SDS011;1940;51.052;13.678;2023-03-19T00:52:10;22.80;;;11.03;;
3849;SDS011;1940;51.052;13.678;2023-03-19T00:54:36;22.27;;;10.33;;
3849;SDS011;1940;51.052;13.678;2023-03-19T00:57:01;18.40;;;10.10;;
3849;SDS011;1940;51.052;13.678;2023-03-19T00:59:27;23.57;;;11.43;;
3849;SDS011;1940;51.052;13.678;2023-03-19T01:01:52;21.07;;;9.90;;
3849;SDS011;1940;51.052;13.678;2023-03-19T01:04:18;26.40;;;11.07;;
3849;SDS011;1940;51.052;13.678;2023-03-19T01:06:43;21.03;;;11.00;;
3849;SDS011;1940;51.052;13.678;2023-03-19T01:09:09;22.33;;;10.77;;
3849;SDS011;1940;51.052;13.678;2023-03-19T01:11:35;22.00;;;10.57;;
3849;SDS011;1940;51.052;13.678;2023-03-19T01:14:00;19.30;;;10.10;;
3849;SDS011;1940;51.052;13.678;2023-03-19T01:16:26;19.03;;;10.10;;
3849;SDS011;1940;51.052;13.678;2023-03-19T01:18:52;19.00;;;9.90;;
3849;SDS011;1940;51.052;13.678;2023-03-19T01:21:18;23.53;;;10.50;;
3849;SDS011;1940;51.052;13.678;2023-03-19T01:23:44;19.17;;;10.03;;
3849;SDS011;1940;51.052;13.678;2023-03-19T01:26:09;23.50;;;9.83;;
3849;SDS011;1940;51.052;13.678;2023-03-19T01:28:35;17.67;;;10.13;;
3849;SDS011;1940;51.052;13.678;2023-03-19T01:31:03;17.97;;;9.53;;
3849;SDS011;1940;51.052;13.678;2023-03-19T01:33:31;18.80;;;9.37;;
3849;SDS011;1940;51.052;13.678;2023-03-19T01:35:57;19.80;;;10.00;;
3849;SDS011;1940;51.052;13.678;2023-03-19T01:38:26;19.37;;;10.57;;
3849;SDS011;1940;51.052;13.678;2023-03-19T01:40:52;17.50;;;10.10;;
3849;SDS011;1940;51.052;13.678;2023-03-19T01:43:21;20.07;;;10.27;;
3849;SDS011;1940;51.052;13.678;2023-03-19T01:45:49;18.50;;;10.30;;
3849;SDS011;1940;51.052;13.678;2023-03-19T01:48:27;19.77;;;10.70;;
3849;SDS011;1940;51.052;13.678;2023-03-19T01:51:02;17.90;;;10.03;;
3849;SDS011;1940;51.052;13.678;2023-03-19T01:53:31;18.20;;;9.70;;
3849;SDS011;1940;51.052;13.678;2023-03-19T01:56:01;22.80;;;10.47;;
3849;SDS011;1940;51.052;13.678;2023-03-19T01:58:28;22.40;;;10.30;;
3849;SDS011;1940;51.052;13.678;2023-03-19T02:00:54;20.80;;;10.97;;
3849;SDS011;1940;51.052;13.678;2023-03-19T02:03:21;20.97;;;9.83;;
3849;SDS011;1940;51.052;13.678;2023-03-19T02:05:48;24.60;;;9.90;;
3849;SDS011;1940;51.052;13.678;2023-03-19T02:08:18;19.40;;;11.07;;
3849;SDS011;1940;51.052;13.678;2023-03-19T02:10:46;18.83;;;10.10;;
3849;SDS011;1940;51.052;13.678;2023-03-19T02:13:13;20.40;;;10.37;;
3849;SDS011;1940;51.052;13.678;2023-03-19T02:15:39;17.73;;;9.57;;
3849;SDS011;1940;51.052;13.678;2023-03-19T02:18:05;19.00;;;10.83;;
3849;SDS011;1940;51.052;13.678;2023-03-19T02:26:05;23.13;;;11.17;;
3849;SDS011;1940;51.052;13.678;2023-03-19T02:28:31;25.93;;;10.40;;
3849;SDS011;1940;51.052;13.678;2023-03-19T02:30:58;17.90;;;10.13;;
3849;SDS011;1940;51.052;13.678;2023-03-19T02:33:24;21.00;;;10.97;;
3849;SDS011;1940;51.052;13.678;2023-03-19T02:35:50;21.93;;;10.57;;
3849;SDS011;1940;51.052;13.678;2023-03-19T02:38:16;19.83;;;10.20;;
3849;SDS011;1940;51.052;13.678;2023-03-19T02:40:50;18.53;;;9.90;;
3849;SDS011;1940;51.052;13.678;2023-03-19T02:43:19;20.63;;;10.07;;
3849;SDS011;1940;51.052;13.678;2023-03-19T02:45:45;24.20;;;10.87;;
3849;SDS011;1940;51.052;13.678;2023-03-19T02:48:11;21.23;;;10.40;;
3849;SDS011;1940;51.052;13.678;2023-03-19T02:50:37;18.77;;;11.07;;
3849;SDS011;1940;51.052;13.678;2023-03-19T02:53:02;24.47;;;9.93;;
3849;SDS011;1940;51.052;13.678;2023-03-19T02:55:28;20.37;;;10.60;;
3849;SDS011;1940;51.052;13.678;2023-03-19T02:57:53;20.23;;;10.90;;
3849;SDS011;1940;51.052;13.678;2023-03-19T03:00:19;17.87;;;9.30;;
3849;SDS011;1940;51.052;13.678;2023-03-19T03:02:45;17.43;;;9.80;;
3849;SDS011;1940;51.052;13.678;2023-03-19T03:05:11;25.30;;;11.40;;
3849;SDS011;1940;51.052;13.678;2023-03-19T03:07:37;21.57;;;10.50;;
3849;SDS011;1940;51.052;13.678;2023-03-19T03:10:04;21.20;;;10.70;;
3849;SDS011;1940;51.052;13.678;2023-03-19T03:12:30;28.60;;;11.83;;
3849;SDS011;1940;51.052;13.678;2023-03-19T03:14:56;22.17;;;11.30;;
3849;SDS011;1940;51.052;13.678;2023-03-19T03:17:21;21.60;;;10.10;;
3849;SDS011;1940;51.052;13.678;2023-03-19T03:19:48;17.70;;;9.93;;
3849;SDS011;1940;51.052;13.678;2023-03-19T03:22:13;20.70;;;11.13;;
3849;SDS011;1940;51.052;13.678;2023-03-19T03:24:39;21.50;;;10.63;;
3849;SDS011;1940;51.052;13.678;2023-03-19T03:27:05;19.30;;;10.07;;
3849;SDS011;1940;51.052;13.678;2023-03-19T03:29:30;19.67;;;10.43;;
3849;SDS011;1940;51.052;13.678;2023-03-19T03:31:56;21.37;;;10.93;;
3849;SDS011;1940;51.052;13.678;2023-03-19T03:34:21;17.77;;;10.03;;
3849;SDS011;1940;51.052;13.678;2023-03-19T03:36:47;23.13;;;11.30;;
3849;SDS011;1940;51.052;13.678;2023-03-19T03:39:12;20.00;;;10.93;;
3849;SDS011;1940;51.052;13.678;2023-03-19T03:41:38;23.27;;;11.20;;
3849;SDS011;1940;51.052;13.678;2023-03-19T03:44:04;21.17;;;11.03;;
3849;SDS011;1940;51.052;13.678;2023-03-19T03:46:29;19.37;;;9.27;;
3849;SDS011;1940;51.052;13.678;2023-03-19T03:48:55;18.80;;;10.00;;
3849;SDS011;1940;51.052;13.678;2023-03-19T03:51:21;19.23;;;10.30;;
3849;SDS011;1940;51.052;13.678;2023-03-19T03:53:46;20.63;;;10.10;;
3849;SDS011;1940;51.052;13.678;2023-03-19T03:56:12;19.90;;;10.63;;
3849;SDS011;1940;51.052;13.678;2023-03-19T03:58:37;19.47;;;9.63;;
3849;SDS011;1940;51.052;13.678;2023-03-19T04:01:03;20.27;;;10.40;;
3849;SDS011;1940;51.052;13.678;2023-03-19T04:03:30;20.07;;;10.17;;
3849;SDS011;1940;51.052;13.678;2023-03-19T04:05:55;19.27;;;10.37;;
3849;SDS011;1940;51.052;13.678;2023-03-19T04:08:21;21.03;;;10.13;;
3849;SDS011;1940;51.052;13.678;2023-03-19T04:10:47;23.53;;;11.20;;
3849;SDS011;1940;51.052;13.678;2023-03-19T04:13:12;23.23;;;10.13;;
3849;SDS011;1940;51.052;13.678;2023-03-19T04:15:40;18.97;;;9.80;;
3849;SDS011;1940;51.052;13.678;2023-03-19T04:18:07;20.30;;;10.47;;
3849;SDS011;1940;51.052;13.678;2023-03-19T04:20:32;20.97;;;10.87;;
3849;SDS011;1940;51.052;13.678;2023-03-19T04:22:58;19.47;;;9.67;;
3849;SDS011;1940;51.052;13.678;2023-03-19T04:25:23;17.87;;;10.27;;
3849;SDS011;1940;51.052;13.678;2023-03-19T04:27:50;21.37;;;10.00;;
3849;SDS011;1940;51.052;13.678;2023-03-19T04:30:16;18.87;;;10.33;;
3849;SDS011;1940;51.052;13.678;2023-03-19T04:32:41;18.90;;;10.37;;
3849;SDS011;1940;51.052;13.678;2023-03-19T04:35:08;23.03;;;10.40;;
3849;SDS011;1940;51.052;13.678;2023-03-19T04:37:34;20.50;;;9.93;;
3849;SDS011;1940;51.052;13.678;2023-03-19T04:39:59;24.80;;;10.07;;
3849;SDS011;1940;51.052;13.678;2023-03-19T04:42:25;19.00;;;10.23;;
3849;SDS011;1940;51.052;13.678;2023-03-19T04:44:50;22.53;;;11.13;;
3849;SDS011;1940;51.052;13.678;2023-03-19T04:47:16;23.03;;;9.70;;
3849;SDS011;1940;51.052;13.678;2023-03-19T04:49:42;19.07;;;10.07;;
3849;SDS011;1940;51.052;13.678;2023-03-19T04:52:07;19.33;;;10.30;;
3849;SDS011;1940;51.052;13.678;2023-03-19T04:54:33;21.87;;;10.70;;
3849;SDS011;1940;51.052;13.678;2023-03-19T04:56:59;20.87;;;9.63;;
3849;SDS011;1940;51.052;13.678;2023-03-19T04:59:24;18.47;;;9.90;;
3849;SDS011;1940;51.052;13.678;2023-03-19T05:01:51;21.13;;;10.27;;
3849;SDS011;1940;51.052;13.678;2023-03-19T05:04:16;19.07;;;9.67;;
3849;SDS011;1940;51.052;13.678;2023-03-19T05:06:42;20.10;;;10.60;;
3849;SDS011;1940;51.052;13.678;2023-03-19T05:09:08;17.20;;;9.63;;
3849;SDS011;1940;51.052;13.678;2023-03-19T05:11:33;18.87;;;9.57;;
3849;SDS011;1940;51.052;13.678;2023-03-19T05:13:59;17.40;;;9.40;;
3849;SDS011;1940;51.052;13.678;2023-03-19T05:16:25;19.60;;;10.13;;
3849;SDS011;1940;51.052;13.678;2023-03-19T05:18:51;19.33;;;10.10;;
3849;SDS011;1940;51.052;13.678;2023-03-19T05:21:17;19.97;;;10.03;;
3849;SDS011;1940;51.052;13.678;2023-03-19T05:23:42;18.00;;;9.50;;
3849;SDS011;1940;51.052;13.678;2023-03-19T05:26:08;22.80;;;10.10;;
3849;SDS011;1940;51.052;13.678;2023-03-19T05:28:33;19.40;;;10.30;;
3849;SDS011;1940;51.052;13.678;2023-03-19T05:30:59;20.40;;;10.07;;
3849;SDS011;1940;51.052;13.678;2023-03-19T05:33:25;18.87;;;9.97;;
3849;SDS011;1940;51.052;13.678;2023-03-19T05:35:50;16.93;;;10.03;;
3849;SDS011;1940;51.052;13.678;2023-03-19T05:38:17;23.00;;;10.60;;
3849;SDS011;1940;51.052;13.678;2023-03-19T05:40:43;17.93;;;9.10;;
3849;SDS011;1940;51.052;13.678;2023-03-19T05:43:08;19.93;;;9.67;;
3849;SDS011;1940;51.052;13.678;2023-03-19T05:45:35;23.30;;;10.20;;
3849;SDS011;1940;51.052;13.678;2023-03-19T05:48:04;19.17;;;10.40;;
3849;SDS011;1940;51.052;13.678;2023-03-19T05:50:30;19.20;;;10.10;;
3849;SDS011;1940;51.052;13.678;2023-03-19T05:52:57;19.20;;;9.50;;
3849;SDS011;1940;51.052;13.678;2023-03-19T05:55:23;17.30;;;9.20;;
3849;SDS011;1940;51.052;13.678;2023-03-19T05:57:49;17.07;;;9.03;;
3849;SDS011;1940;51.052;13.678;2023-03-19T06:00:14;20.23;;;10.20;;
3849;SDS011;1940;51.052;13.678;2023-03-19T06:02:41;17.13;;;9.63;;
3849;SDS011;1940;51.052;13.678;2023-03-19T06:05:07;20.20;;;10.53;;
3849;SDS011;1940;51.052;13.678;2023-03-19T06:07:33;16.40;;;9.73;;
3849;SDS011;1940;51.052;13.678;2023-03-19T06:09:59;19.40;;;9.80;;
3849;SDS011;1940;51.052;13.678;2023-03-19T06:12:25;20.23;;;9.47;;
3849;SDS011;1940;51.052;13.678;2023-03-19T06:14:50;19.80;;;8.57;;
3849;SDS011;1940;51.052;13.678;2023-03-19T06:17:16;16.80;;;8.43;;
3849;SDS011;1940;51.052;13.678;2023-03-19T06:19:42;18.73;;;10.07;;
3849;SDS011;1940;51.052;13.678;2023-03-19T06:22:07;19.57;;;9.53;;
3849;SDS011;1940;51.052;13.678;2023-03-19T06:24:33;19.03;;;9.87;;
3849;SDS011;1940;51.052;13.678;2023-03-19T06:26:59;20.43;;;9.50;;
3849;SDS011;1940;51.052;13.678;2023-03-19T06:29:25;19.47;;;9.83;;
3849;SDS011;1940;51.052;13.678;2023-03-19T06:31:51;17.03;;;9.13;;
3849;SDS011;1940;51.052;13.678;2023-03-19T06:34:16;19.10;;;9.30;;
3849;SDS011;1940;51.052;13.678;2023-03-19T06:36:42;16.03;;;9.10;;
3849;SDS011;1940;51.052;13.678;2023-03-19T06:39:08;23.47;;;10.57;;
3849;SDS011;1940;51.052;13.678;2023-03-19T06:41:34;15.27;;;8.13;;
3849;SDS011;1940;51.052;13.678;2023-03-19T06:44:00;24.53;;;9.23;;
3849;SDS011;1940;51.052;13.678;2023-03-19T06:46:25;15.97;;;9.03;;
3849;SDS011;1940;51.052;13.678;2023-03-19T06:48:51;19.47;;;10.00;;
3849;SDS011;1940;51.052;13.678;2023-03-19T06:51:17;18.73;;;9.57;;
3849;SDS011;1940;51.052;13.678;2023-03-19T06:53:42;31.17;;;9.50;;
3849;SDS011;1940;51.052;13.678;2023-03-19T06:56:08;21.47;;;9.90;;
3849;SDS011;1940;51.052;13.678;2023-03-19T06:58:35;18.80;;;8.93;;
3849;SDS011;1940;51.052;13.678;2023-03-19T07:01:01;23.30;;;10.20;;
3849;SDS011;1940;51.052;13.678;2023-03-19T07:03:26;17.40;;;9.27;;
3849;SDS011;1940;51.052;13.678;2023-03-19T07:05:52;19.13;;;10.63;;
3849;SDS011;1940;51.052;13.678;2023-03-19T07:08:17;25.00;;;9.57;;
3849;SDS011;1940;51.052;13.678;2023-03-19T07:10:43;18.90;;;9.67;;
3849;SDS011;1940;51.052;13.678;2023-03-19T07:13:09;20.43;;;9.57;;
3849;SDS011;1940;51.052;13.678;2023-03-19T07:15:35;16.90;;;9.10;;
3849;SDS011;1940;51.052;13.678;2023-03-19T07:18:00;18.63;;;8.53;;
3849;SDS011;1940;51.052;13.678;2023-03-19T07:20:27;19.20;;;9.67;;
3849;SDS011;1940;51.052;13.678;2023-03-19T07:22:52;17.67;;;9.47;;
3849;SDS011;1940;51.052;13.678;2023-03-19T07:25:18;20.77;;;9.30;;
3849;SDS011;1940;51.052;13.678;2023-03-19T07:27:44;17.93;;;9.60;;
3849;SDS011;1940;51.052;13.678;2023-03-19T07:30:10;23.17;;;9.93;;
3849;SDS011;1940;51.052;13.678;2023-03-19T07:32:36;19.53;;;9.43;;
3849;SDS011;1940;51.052;13.678;2023-03-19T07:35:03;20.20;;;9.87;;
3849;SDS011;1940;51.052;13.678;2023-03-19T07:37:30;20.10;;;10.60;;
3849;SDS011;1940;51.052;13.678;2023-03-19T07:39:56;17.60;;;10.00;;
3849;SDS011;1940;51.052;13.678;2023-03-19T07:42:21;19.53;;;9.60;;
3849;SDS011;1940;51.052;13.678;2023-03-19T07:44:47;16.87;;;9.47;;
3849;SDS011;1940;51.052;13.678;2023-03-19T07:47:12;15.67;;;8.83;;
3849;SDS011;1940;51.052;13.678;2023-03-19T07:49:37;20.00;;;9.60;;
3849;SDS011;1940;51.052;13.678;2023-03-19T07:52:03;20.07;;;10.00;;
3849;SDS011;1940;51.052;13.678;2023-03-19T07:54:29;19.70;;;10.13;;
3849;SDS011;1940;51.052;13.678;2023-03-19T07:56:55;17.47;;;9.90;;
3849;SDS011;1940;51.052;13.678;2023-03-19T07:59:20;16.83;;;9.77;;
3849;SDS011;1940;51.052;13.678;2023-03-19T08:01:46;19.50;;;10.30;;
3849;SDS011;1940;51.052;13.678;2023-03-19T08:04:13;17.67;;;9.87;;
3849;SDS011;1940;51.052;13.678;2023-03-19T08:06:39;16.87;;;9.43;;
3849;SDS011;1940;51.052;13.678;2023-03-19T08:09:05;18.53;;;9.40;;
3849;SDS011;1940;51.052;13.678;2023-03-19T08:11:40;18.27;;;10.13;;
3849;SDS011;1940;51.052;13.678;2023-03-19T08:14:06;16.17;;;8.57;;
3849;SDS011;1940;51.052;13.678;2023-03-19T08:16:31;20.07;;;9.90;;
3849;SDS011;1940;51.052;13.678;2023-03-19T08:18:57;17.83;;;9.10;;
3849;SDS011;1940;51.052;13.678;2023-03-19T08:21:22;21.20;;;9.90;;
3849;SDS011;1940;51.052;13.678;2023-03-19T08:23:48;21.93;;;10.40;;
3849;SDS011;1940;51.052;13.678;2023-03-19T08:26:14;17.30;;;9.30;;
3849;SDS011;1940;51.052;13.678;2023-03-19T08:28:40;17.90;;;9.30;;
3849;SDS011;1940;51.052;13.678;2023-03-19T08:31:06;15.47;;;9.00;;
3849;SDS011;1940;51.052;13.678;2023-03-19T08:33:33;17.60;;;9.60;;
3849;SDS011;1940;51.052;13.678;2023-03-19T08:36:08;18.90;;;10.17;;
3849;SDS011;1940;51.052;13.678;2023-03-19T08:38:35;19.37;;;10.27;;
3849;SDS011;1940;51.052;13.678;2023-03-19T08:41:01;17.40;;;9.33;;
3849;SDS011;1940;51.052;13.678;2023-03-19T08:43:28;17.27;;;9.13;;
3849;SDS011;1940;51.052;13.678;2023-03-19T08:45:55;14.00;;;8.47;;
3849;SDS011;1940;51.052;13.678;2023-03-19T08:48:21;18.93;;;9.57;;
3849;SDS011;1940;51.052;13.678;2023-03-19T08:50:51;18.40;;;9.67;;
3849;SDS011;1940;51.052;13.678;2023-03-19T08:53:18;18.47;;;9.33;;
3849;SDS011;1940;51.052;13.678;2023-03-19T08:55:43;16.30;;;9.20;;
3849;SDS011;1940;51.052;13.678;2023-03-19T08:58:09;16.63;;;9.07;;
3849;SDS011;1940;51.052;13.678;2023-03-19T09:00:34;16.83;;;10.07;;
3849;SDS011;1940;51.052;13.678;2023-03-19T09:03:00;19.33;;;9.20;;
3849;SDS011;1940;51.052;13.678;2023-03-19T09:05:25;15.40;;;8.50;;
3849;SDS011;1940;51.052;13.678;2023-03-19T09:07:51;19.87;;;9.77;;
3849;SDS011;1940;51.052;13.678;2023-03-19T09:10:16;17.43;;;9.10;;
3849;SDS011;1940;51.052;13.678;2023-03-19T09:12:42;17.67;;;9.10;;
3849;SDS011;1940;51.052;13.678;2023-03-19T09:15:08;22.93;;;10.20;;
3849;SDS011;1940;51.052;13.678;2023-03-19T09:17:34;17.63;;;9.70;;
3849;SDS011;1940;51.052;13.678;2023-03-19T09:19:59;16.73;;;8.97;;
3849;SDS011;1940;51.052;13.678;2023-03-19T09:22:25;16.87;;;9.70;;
3849;SDS011;1940;51.052;13.678;2023-03-19T09:24:50;16.13;;;9.60;;
3849;SDS011;1940;51.052;13.678;2023-03-19T09:27:16;13.50;;;8.30;;
3849;SDS011;1940;51.052;13.678;2023-03-19T09:29:42;17.50;;;9.47;;
3849;SDS011;1940;51.052;13.678;2023-03-19T09:32:08;16.63;;;9.70;;
3849;SDS011;1940;51.052;13.678;2023-03-19T09:34:34;16.50;;;8.93;;
3849;SDS011;1940;51.052;13.678;2023-03-19T09:36:59;19.90;;;9.03;;
3849;SDS011;1940;51.052;13.678;2023-03-19T09:39:25;16.50;;;9.50;;
3849;SDS011;1940;51.052;13.678;2023-03-19T09:44:39;18.00;;;9.40;;
3849;SDS011;1940;51.052;13.678;2023-03-19T09:49:51;16.20;;;8.93;;
3849;SDS011;1940;51.052;13.678;2023-03-19T09:52:26;19.73;;;10.50;;
3849;SDS011;1940;51.052;13.678;2023-03-19T09:54:55;14.50;;;8.90;;
3849;SDS011;1940;51.052;13.678;2023-03-19T09:57:24;20.43;;;9.90;;
3849;SDS011;1940;51.052;13.678;2023-03-19T09:59:53;15.23;;;9.23;;
3849;SDS011;1940;51.052;13.678;2023-03-19T10:02:35;19.07;;;10.03;;
3849;SDS011;1940;51.052;13.678;2023-03-19T10:05:14;17.87;;;9.67;;
3849;SDS011;1940;51.052;13.678;2023-03-19T10:08:16;25.87;;;9.53;;
3849;SDS011;1940;51.052;13.678;2023-03-19T10:11:04;15.73;;;9.17;;
3849;SDS011;1940;51.052;13.678;2023-03-19T10:13:55;17.87;;;9.37;;
3849;SDS011;1940;51.052;13.678;2023-03-19T10:16:33;16.20;;;9.30;;
3849;SDS011;1940;51.052;13.678;2023-03-19T10:19:01;19.47;;;10.17;;
3849;SDS011;1940;51.052;13.678;2023-03-19T10:27:00;19.20;;;10.80;;
3849;SDS011;1940;51.052;13.678;2023-03-19T10:29:32;16.27;;;9.80;;
3849;SDS011;1940;51.052;13.678;2023-03-19T10:32:02;13.90;;;8.77;;
3849;SDS011;1940;51.052;13.678;2023-03-19T10:34:37;15.07;;;9.10;;
3849;SDS011;1940;51.052;13.678;2023-03-19T10:37:13;16.00;;;9.47;;
3849;SDS011;1940;51.052;13.678;2023-03-19T10:39:45;16.30;;;9.40;;
3849;SDS011;1940;51.052;13.678;2023-03-19T10:45:08;16.03;;;9.53;;
3849;SDS011;1940;51.052;13.678;2023-03-19T10:47:44;18.30;;;10.10;;
3849;SDS011;1940;51.052;13.678;2023-03-19T10:50:14;18.17;;;9.87;;
3849;SDS011;1940;51.052;13.678;2023-03-19T10:52:50;17.77;;;9.33;;
3849;SDS011;1940;51.052;13.678;2023-03-19T10:55:23;17.10;;;10.10;;
3849;SDS011;1940;51.052;13.678;2023-03-19T10:57:51;16.10;;;9.30;;
3849;SDS011;1940;51.052;13.678;2023-03-19T11:00:26;15.37;;;9.27;;
3849;SDS011;1940;51.052;13.678;2023-03-19T11:02:56;17.63;;;10.20;;
3849;SDS011;1940;51.052;13.678;2023-03-19T11:05:27;18.33;;;10.50;;
3849;SDS011;1940;51.052;13.678;2023-03-19T11:07:55;21.40;;;10.17;;
3849;SDS011;1940;51.052;13.678;2023-03-19T11:10:27;15.80;;;9.50;;
3849;SDS011;1940;51.052;13.678;2023-03-19T11:13:05;15.77;;;9.53;;
3849;SDS011;1940;51.052;13.678;2023-03-19T11:15:41;16.30;;;9.53;;
3849;SDS011;1940;51.052;13.678;2023-03-19T11:21:21;19.27;;;9.80;;
3849;SDS011;1940;51.052;13.678;2023-03-19T11:23:53;14.80;;;9.60;;
3849;SDS011;1940;51.052;13.678;2023-03-19T11:26:27;18.63;;;11.20;;
3849;SDS011;1940;51.052;13.678;2023-03-19T11:28:53;17.30;;;9.97;;
3849;SDS011;1940;51.052;13.678;2023-03-19T11:31:26;16.93;;;9.80;;
3849;SDS011;1940;51.052;13.678;2023-03-19T11:34:06;18.20;;;10.17;;
3849;SDS011;1940;51.052;13.678;2023-03-19T11:42:30;19.40;;;10.63;;
3849;SDS011;1940;51.052;13.678;2023-03-19T11:50:29;16.83;;;9.70;;
3849;SDS011;1940;51.052;13.678;2023-03-19T11:58:59;20.10;;;9.93;;
3849;SDS011;1940;51.052;13.678;2023-03-19T12:13:20;17.50;;;10.00;;
3849;SDS011;1940;51.052;13.678;2023-03-19T12:16:16;17.73;;;9.90;;
3849;SDS011;1940;51.052;13.678;2023-03-19T12:18:58;19.70;;;10.13;;
3849;SDS011;1940;51.052;13.678;2023-03-19T12:21:39;16.47;;;9.67;;
3849;SDS011;1940;51.052;13.678;2023-03-19T12:24:20;19.50;;;9.27;;
3849;SDS011;1940;51.052;13.678;2023-03-19T12:27:19;17.10;;;9.37;;
3849;SDS011;1940;51.052;13.678;2023-03-19T12:29:59;17.57;;;8.80;;
3849;SDS011;1940;51.052;13.678;2023-03-19T12:32:48;18.70;;;9.50;;
3849;SDS011;1940;51.052;13.678;2023-03-19T12:35:23;17.50;;;8.90;;
3849;SDS011;1940;51.052;13.678;2023-03-19T12:38:01;15.00;;;8.77;;
3849;SDS011;1940;51.052;13.678;2023-03-19T12:40:29;15.80;;;9.57;;
3849;SDS011;1940;51.052;13.678;2023-03-19T12:43:07;17.33;;;9.83;;
3849;SDS011;1940;51.052;13.678;2023-03-19T12:46:22;17.40;;;9.43;;
3849;SDS011;1940;51.052;13.678;2023-03-19T12:48:56;18.73;;;9.87;;
3849;SDS011;1940;51.052;13.678;2023-03-19T12:51:26;21.30;;;9.67;;
3849;SDS011;1940;51.052;13.678;2023-03-19T12:54:04;17.20;;;9.40;;
3849;SDS011;1940;51.052;13.678;2023-03-19T12:56:38;18.30;;;9.70;;
3849;SDS011;1940;51.052;13.678;2023-03-19T13:02:37;17.40;;;9.90;;
3849;SDS011;1940;51.052;13.678;2023-03-19T13:08:00;20.90;;;11.20;;
3849;SDS011;1940;51.052;13.678;2023-03-19T13:10:37;16.40;;;9.10;;
3849;SDS011;1940;51.052;13.678;2023-03-19T13:13:09;20.17;;;10.57;;
3849;SDS011;1940;51.052;13.678;2023-03-19T13:15:55;16.90;;;9.87;;
3849;SDS011;1940;51.052;13.678;2023-03-19T13:18:49;21.37;;;10.30;;
3849;SDS011;1940;51.052;13.678;2023-03-19T13:21:24;20.43;;;10.60;;
3849;SDS011;1940;51.052;13.678;2023-03-19T13:24:07;18.73;;;10.93;;
3849;SDS011;1940;51.052;13.678;2023-03-19T13:26:45;20.40;;;9.80;;
3849;SDS011;1940;51.052;13.678;2023-03-19T13:31:43;15.87;;;9.10;;
3849;SDS011;1940;51.052;13.678;2023-03-19T13:36:42;22.80;;;10.87;;
3849;SDS011;1940;51.052;13.678;2023-03-19T13:39:12;18.07;;;9.87;;
3849;SDS011;1940;51.052;13.678;2023-03-19T13:58:04;21.40;;;9.40;;
3849;SDS011;1940;51.052;13.678;2023-03-19T14:03:18;17.00;;;9.20;;
3849;SDS011;1940;51.052;13.678;2023-03-19T14:05:48;15.97;;;10.03;;
3849;SDS011;1940;51.052;13.678;2023-03-19T14:08:23;21.40;;;10.00;;
3849;SDS011;1940;51.052;13.678;2023-03-19T14:11:07;16.30;;;9.20;;
3849;SDS011;1940;51.052;13.678;2023-03-19T14:13:36;17.60;;;9.30;;
3849;SDS011;1940;51.052;13.678;2023-03-19T14:16:20;17.50;;;9.33;;
3849;SDS011;1940;51.052;13.678;2023-03-19T14:18:49;16.37;;;9.93;;
3849;SDS011;1940;51.052;13.678;2023-03-19T14:21:39;23.00;;;10.53;;
3849;SDS011;1940;51.052;13.678;2023-03-19T14:24:20;20.40;;;9.93;;
3849;SDS011;1940;51.052;13.678;2023-03-19T14:27:03;18.53;;;9.60;;
3849;SDS011;1940;51.052;13.678;2023-03-19T14:29:46;18.93;;;10.10;;
3849;SDS011;1940;51.052;13.678;2023-03-19T14:32:16;20.47;;;9.87;;
3849;SDS011;1940;51.052;13.678;2023-03-19T14:34:45;19.50;;;9.90;;
3849;SDS011;1940;51.052;13.678;2023-03-19T14:37:23;18.30;;;9.53;;
3849;SDS011;1940;51.052;13.678;2023-03-19T14:40:08;20.53;;;10.03;;
3849;SDS011;1940;51.052;13.678;2023-03-19T14:43:03;18.70;;;10.80;;
3849;SDS011;1940;51.052;13.678;2023-03-19T14:48:35;18.77;;;10.30;;
3849;SDS011;1940;51.052;13.678;2023-03-19T14:54:47;21.63;;;9.60;;
3849;SDS011;1940;51.052;13.678;2023-03-19T14:57:19;19.57;;;10.20;;
3849;SDS011;1940;51.052;13.678;2023-03-19T14:59:53;17.67;;;9.87;;
3849;SDS011;1940;51.052;13.678;2023-03-19T15:02:22;19.37;;;11.00;;
3849;SDS011;1940;51.052;13.678;2023-03-19T15:05:26;21.07;;;9.83;;
3849;SDS011;1940;51.052;13.678;2023-03-19T15:07:58;17.47;;;9.70;;
3849;SDS011;1940;51.052;13.678;2023-03-19T15:10:27;20.13;;;10.83;;
3849;SDS011;1940;51.052;13.678;2023-03-19T15:13:04;16.80;;;9.77;;
3849;SDS011;1940;51.052;13.678;2023-03-19T15:15:38;21.20;;;10.47;;
3849;SDS011;1940;51.052;13.678;2023-03-19T15:18:25;14.20;;;7.07;;
3849;SDS011;1940;51.052;13.678;2023-03-19T15:20:51;8.83;;;4.10;;
3849;SDS011;1940;51.052;13.678;2023-03-19T15:23:19;13.97;;;5.50;;
3849;SDS011;1940;51.052;13.678;2023-03-19T15:25:51;12.13;;;7.27;;
3849;SDS011;1940;51.052;13.678;2023-03-19T15:28:23;6.53;;;3.13;;
3849;SDS011;1940;51.052;13.678;2023-03-19T15:30:57;4.20;;;2.67;;
3849;SDS011;1940;51.052;13.678;2023-03-19T15:33:24;4.77;;;2.63;;
3849;SDS011;1940;51.052;13.678;2023-03-19T15:38:38;4.80;;;3.03;;
3849;SDS011;1940;51.052;13.678;2023-03-19T15:41:12;5.13;;;2.90;;
3849;SDS011;1940;51.052;13.678;2023-03-19T15:43:39;3.83;;;2.70;;
3849;SDS011;1940;51.052;13.678;2023-03-19T15:46:06;5.53;;;2.80;;
3849;SDS011;1940;51.052;13.678;2023-03-19T15:48:47;6.87;;;3.10;;
3849;SDS011;1940;51.052;13.678;2023-03-19T15:51:16;4.80;;;2.97;;
3849;SDS011;1940;51.052;13.678;2023-03-19T15:53:43;5.63;;;2.80;;
3849;SDS011;1940;51.052;13.678;2023-03-19T15:56:10;5.37;;;2.90;;
3849;SDS011;1940;51.052;13.678;2023-03-19T15:58:39;6.00;;;2.73;;
3849;SDS011;1940;51.052;13.678;2023-03-19T16:01:08;5.00;;;3.30;;
3849;SDS011;1940;51.052;13.678;2023-03-19T16:03:37;7.27;;;3.40;;
3849;SDS011;1940;51.052;13.678;2023-03-19T16:06:06;3.20;;;2.80;;
3849;SDS011;1940;51.052;13.678;2023-03-19T16:08:52;4.07;;;3.10;;
3849;SDS011;1940;51.052;13.678;2023-03-19T16:11:40;5.20;;;2.67;;
3849;SDS011;1940;51.052;13.678;2023-03-19T16:16:39;6.30;;;3.33;;
3849;SDS011;1940;51.052;13.678;2023-03-19T16:19:05;10.97;;;5.50;;
3849;SDS011;1940;51.052;13.678;2023-03-19T16:22:02;6.10;;;4.30;;
3849;SDS011;1940;51.052;13.678;2023-03-19T16:24:40;8.50;;;5.30;;
3849;SDS011;1940;51.052;13.678;2023-03-19T16:27:11;8.23;;;4.00;;
3849;SDS011;1940;51.052;13.678;2023-03-19T16:29:42;5.43;;;3.30;;